Time;durP1;ratioP1;P1;durP2;ratioP2;P2;SDS_P1;SDS_P2;PMS_P1;PMS_P2;Temp;Humidity;BMP_temperature;BMP_pressure;BME280_temperature;BME280_humidity;BME280_pressure;Samples;Min_cycle;Max_cycle;Signal;HPM_P1;HPM_P2
2022/05/09 04:03:46;;;;;;;5.10;4.70;;;10.20;99.90;;;;;;4952047;29;20237;-68
2022/05/09 04:06:13;;;;;;;4.60;4.30;;;10.20;99.90;;;;;;4955657;28;20254;-68
2022/05/09 04:08:40;;;;;;;4.75;4.32;;;10.20;99.90;;;;;;4955353;28;20208;-67
2022/05/09 04:11:07;;;;;;;4.47;4.10;;;10.30;99.90;;;;;;4955487;28;20250;-67
2022/05/09 04:13:34;;;;;;;4.57;4.28;;;10.30;99.90;;;;;;4956101;28;20235;-68
2022/05/09 04:18:47;;;;;;;5.22;4.43;;;10.40;99.90;;;;;;4955317;29;20191;-67
2022/05/09 04:21:14;;;;;;;5.40;5.00;;;10.50;99.90;;;;;;4955160;28;20734;-67
2022/05/09 04:23:42;;;;;;;4.72;4.43;;;10.80;99.90;;;;;;4955321;28;20223;-67
2022/05/09 04:26:09;;;;;;;4.60;4.30;;;11.00;99.90;;;;;;4955188;28;20227;-67
2022/05/09 04:28:36;;;;;;;4.45;4.15;;;11.30;99.90;;;;;;4955269;28;20243;-67
2022/05/09 04:31:03;;;;;;;4.93;4.53;;;11.50;99.90;;;;;;4954645;28;20711;-67
2022/05/09 04:33:30;;;;;;;4.50;4.20;;;11.50;99.90;;;;;;4954889;28;20203;-66
2022/05/09 04:35:59;;;;;;;4.30;4.00;;;11.60;99.90;;;;;;4954683;28;20318;-67
2022/05/09 04:38:27;;;;;;;4.32;4.03;;;11.60;99.90;;;;;;4954854;28;20208;-67
2022/05/09 04:40:56;;;;;;;3.65;3.35;;;11.60;99.90;;;;;;4955221;28;20214;-66
2022/05/09 04:43:25;;;;;;;4.30;3.90;;;11.60;99.90;;;;;;4954577;28;20607;-68
2022/05/09 04:45:52;;;;;;;5.20;4.70;;;11.70;99.90;;;;;;4955175;28;20286;-67
2022/05/09 04:48:21;;;;;;;6.53;5.88;;;11.80;99.90;;;;;;4958666;28;20207;-65
2022/05/09 04:50:48;;;;;;;5.53;5.07;;;12.00;99.90;;;;;;4959102;28;20206;-65
2022/05/09 04:53:17;;;;;;;6.07;5.60;;;12.20;99.90;;;;;;4958910;28;20227;-67
2022/05/09 04:55:44;;;;;;;5.95;5.45;;;12.60;99.90;;;;;;4958933;28;20208;-67
2022/05/09 04:58:13;;;;;;;5.07;4.70;;;13.20;99.90;;;;;;4959025;28;20199;-68
2022/05/09 05:00:40;;;;;;;4.95;4.65;;;13.80;99.90;;;;;;4959181;28;20294;-68
2022/05/09 05:03:07;;;;;;;4.57;4.28;;;14.40;99.90;;;;;;4958719;28;20319;-67
2022/05/09 05:05:34;;;;;;;5.05;4.65;;;15.10;99.90;;;;;;4959475;28;20208;-68
2022/05/09 05:08:02;;;;;;;4.90;4.60;;;15.70;99.90;;;;;;4959761;28;20291;-68
2022/05/09 05:10:31;;;;;;;5.50;4.90;;;16.20;99.90;;;;;;4959317;28;20208;-68
2022/05/09 05:12:59;;;;;;;5.20;4.80;;;16.80;99.90;;;;;;4959669;28;20227;-67
2022/05/09 05:15:26;;;;;;;3.58;3.38;;;17.30;99.90;;;;;;4959174;28;20227;-67
2022/05/09 05:17:53;;;;;;;3.60;3.40;;;17.80;99.90;;;;;;4959228;28;20211;-67
2022/05/09 05:20:20;;;;;;;4.07;3.88;;;18.20;99.90;;;;;;4958568;28;20243;-67
2022/05/09 05:22:49;;;;;;;4.28;3.97;;;18.60;99.90;;;;;;4958424;28;20228;-67
2022/05/09 05:25:19;;;;;;;4.88;4.50;;;19.20;99.90;;;;;;4958775;28;20239;-67
2022/05/09 05:27:48;;;;;;;5.15;4.57;;;19.60;99.90;;;;;;4958627;28;20208;-67
2022/05/09 05:30:15;;;;;;;5.50;5.00;;;20.10;96.00;;;;;;4958833;28;20200;-67
2022/05/09 05:32:42;;;;;;;5.78;4.65;;;20.70;82.00;;;;;;4958157;28;20256;-67
2022/05/09 05:35:12;;;;;;;5.38;4.60;;;21.30;76.50;;;;;;4958669;28;20225;-67
2022/05/09 05:37:39;;;;;;;4.40;4.00;;;21.90;62.50;;;;;;4959079;28;20200;-67
2022/05/09 05:40:07;;;;;;;4.68;4.28;;;22.50;55.30;;;;;;4959683;28;20200;-67
2022/05/09 05:42:34;;;;;;;4.28;4.00;;;23.10;51.00;;;;;;4959134;28;20309;-68
2022/05/09 05:45:03;;;;;;;3.92;3.63;;;23.80;45.30;;;;;;4958860;28;20207;-68
2022/05/09 05:47:30;;;;;;;4.00;3.70;;;24.40;43.60;;;;;;4958403;28;20200;-68
2022/05/09 05:49:57;;;;;;;5.70;3.80;;;25.10;41.30;;;;;;4958036;28;20659;-68
2022/05/09 05:52:24;;;;;;;3.28;3.13;;;25.70;38.70;;;;;;4958538;28;20304;-67
2022/05/09 05:54:51;;;;;;;3.80;3.35;;;26.30;37.50;;;;;;4957914;28;20209;-67
2022/05/09 05:57:21;;;;;;;4.25;3.53;;;27.10;36.20;;;;;;4958261;28;20235;-67
2022/05/09 05:59:49;;;;;;;3.85;3.65;;;27.70;32.60;;;;;;4958403;28;20204;-67
2022/05/09 06:02:17;;;;;;;3.28;3.17;;;28.30;31.80;;;;;;4957806;28;20224;-68
2022/05/09 06:04:44;;;;;;;3.10;2.83;;;28.90;30.30;;;;;;4958094;28;20200;-68
2022/05/09 06:07:12;;;;;;;4.22;2.95;;;29.50;29.90;;;;;;4958162;28;20203;-68
2022/05/09 06:09:40;;;;;;;4.43;3.63;;;30.30;26.30;;;;;;4957948;28;20554;-68
2022/05/09 06:12:07;;;;;;;4.10;3.53;;;31.10;27.70;;;;;;4957855;28;20224;-67
2022/05/09 06:14:34;;;;;;;3.47;3.20;;;32.00;25.70;;;;;;4957771;28;20234;-67
2022/05/09 06:17:02;;;;;;;3.75;2.88;;;;;;;;;;4957651;28;20230;-68
2022/05/09 06:19:30;;;;;;;3.88;3.50;;;34.00;21.90;;;;;;4957365;28;20204;-68
2022/05/09 06:21:58;;;;;;;3.20;3.00;;;34.70;20.60;;;;;;4957518;28;20230;-68
2022/05/09 06:24:25;;;;;;;3.47;3.20;;;35.30;20.00;;;;;;4957627;28;20224;-68
2022/05/09 06:26:52;;;;;;;2.80;2.70;;;36.00;19.60;;;;;;4957662;28;20299;-68
2022/05/09 06:29:19;;;;;;;3.05;2.72;;;36.70;19.00;;;;;;4957690;28;20199;-66
2022/05/09 06:31:46;;;;;;;3.78;2.55;;;37.50;19.30;;;;;;4957383;28;20231;-67
2022/05/09 06:34:14;;;;;;;3.60;3.30;;;38.20;18.50;;;;;;4957383;28;20210;-67
2022/05/09 06:36:44;;;;;;;2.90;2.70;;;39.10;21.40;;;;;;4957484;28;20249;-67
2022/05/09 06:39:12;;;;;;;3.35;3.15;;;39.90;21.10;;;;;;4957348;28;20210;-67
2022/05/09 06:41:39;;;;;;;3.30;3.10;;;39.60;20.30;;;;;;4957264;28;20255;-68
2022/05/09 06:44:06;;;;;;;4.07;2.88;;;39.10;21.30;;;;;;4956918;28;20718;-68
2022/05/09 06:46:33;;;;;;;3.30;3.10;;;37.90;21.90;;;;;;4957022;28;20294;-67
2022/05/09 06:49:01;;;;;;;3.10;2.90;;;36.40;21.20;;;;;;4957281;28;20207;-67
2022/05/09 06:51:27;;;;;;;2.90;2.70;;;35.70;21.70;;;;;;4957159;28;20254;-67
2022/05/09 06:53:56;;;;;;;3.78;3.47;;;34.70;22.70;;;;;;4957165;28;20202;-67
2022/05/09 06:56:23;;;;;;;3.10;2.97;;;33.70;22.90;;;;;;4957058;28;20299;-67
2022/05/09 06:58:50;;;;;;;2.90;2.80;;;32.10;25.00;;;;;;4956820;28;20214;-68
2022/05/09 07:01:18;;;;;;;3.30;3.20;;;30.90;24.60;;;;;;4957884;28;20203;-71
2022/05/09 07:03:46;;;;;;;3.67;3.38;;;29.40;26.60;;;;;;4957106;28;20223;-69
2022/05/09 07:06:13;;;;;;;3.38;2.88;;;28.00;28.30;;;;;;4957331;28;20253;-69
2022/05/09 07:08:42;;;;;;;3.92;3.72;;;26.80;30.70;;;;;;4956950;29;20208;-69
2022/05/09 07:11:12;;;;;;;3.90;3.60;;;26.10;35.10;;;;;;4956365;28;20188;-69
2022/05/09 07:13:40;;;;;;;3.83;3.58;;;25.40;34.00;;;;;;4957064;28;20190;-69
2022/05/09 07:16:08;;;;;;;3.88;3.60;;;25.30;35.50;;;;;;4956540;28;20214;-69
2022/05/09 07:18:36;;;;;;;4.40;4.05;;;25.70;36.90;;;;;;4956645;28;20203;-69
2022/05/09 07:21:03;;;;;;;4.82;4.50;;;25.60;33.90;;;;;;4956538;28;20274;-69
2022/05/09 07:23:30;;;;;;;3.78;3.47;;;25.20;33.90;;;;;;4956422;28;20231;-69
2022/05/09 07:25:58;;;;;;;3.83;3.58;;;24.70;34.50;;;;;;4957058;28;20211;-69
2022/05/09 07:28:28;;;;;;;3.75;3.55;;;24.00;36.40;;;;;;4956855;28;20738;-69
2022/05/09 07:30:57;;;;;;;4.15;3.95;;;23.80;38.40;;;;;;4956718;28;20671;-70
2022/05/09 07:33:24;;;;;;;4.45;4.15;;;23.60;38.30;;;;;;4956694;28;20220;-69
2022/05/09 07:35:51;;;;;;;4.75;4.45;;;23.20;39.80;;;;;;4956755;28;20215;-69
2022/05/09 07:38:18;;;;;;;4.47;3.70;;;22.70;39.80;;;;;;4956602;28;20208;-69
2022/05/09 07:40:46;;;;;;;4.90;4.50;;;22.10;44.80;;;;;;4956485;28;20609;-69
2022/05/09 07:43:17;;;;;;;4.45;4.15;;;21.90;49.40;;;;;;4956240;28;20223;-69
2022/05/09 07:45:47;;;;;;;4.45;4.15;;;21.80;48.40;;;;;;4956422;28;20215;-69
2022/05/09 07:48:14;;;;;;;5.50;5.00;;;21.60;48.50;;;;;;4956191;28;20188;-68
2022/05/09 07:50:42;;;;;;;5.68;5.20;;;21.20;50.40;;;;;;4956165;28;20210;-68
2022/05/09 07:53:10;;;;;;;7.80;5.65;;;20.90;52.70;;;;;;4956213;28;20216;-68
2022/05/09 07:55:37;;;;;;;5.05;4.65;;;20.60;55.60;;;;;;4956158;28;20210;-68
2022/05/09 07:58:04;;;;;;;5.53;4.95;;;20.40;55.60;;;;;;4955728;28;20570;-68
2022/05/09 08:00:31;;;;;;;4.93;4.53;;;20.20;57.70;;;;;;4955955;28;20204;-69
2022/05/09 08:03:00;;;;;;;5.80;5.20;;;20.00;58.00;;;;;;4955638;28;20231;-68
2022/05/09 08:05:26;;;;;;;5.50;5.10;;;19.80;59.10;;;;;;4955879;28;20211;-68
2022/05/09 08:07:53;;;;;;;5.70;5.25;;;19.50;63.10;;;;;;4955808;28;20374;-68
2022/05/09 08:10:21;;;;;;;4.85;4.55;;;19.10;70.20;;;;;;4955571;28;20203;-68
2022/05/09 08:12:49;;;;;;;4.53;4.30;;;18.90;76.60;;;;;;4955569;28;20224;-68
2022/05/09 08:15:18;;;;;;;5.20;4.80;;;18.80;83.10;;;;;;4956114;28;20210;-69
2022/05/09 08:17:46;;;;;;;5.32;4.93;;;18.90;83.50;;;;;;4956262;28;20286;-69
2022/05/09 08:20:15;;;;;;;5.70;5.22;;;18.90;80.40;;;;;;4956458;28;20200;-69
2022/05/09 08:22:42;;;;;;;6.85;5.35;;;18.90;79.10;;;;;;4955522;28;20258;-69
2022/05/09 08:25:12;;;;;;;4.90;4.60;;;19.00;77.10;;;;;;4956278;28;20203;-68
2022/05/09 08:27:39;;;;;;;5.63;5.18;;;19.20;84.30;;;;;;4956145;28;20192;-69
2022/05/09 08:30:08;;;;;;;5.05;4.65;;;19.40;79.00;;;;;;4956384;28;20226;-68
2022/05/09 08:32:36;;;;;;;5.90;5.40;;;19.60;79.90;;;;;;4973090;28;20223;-68
2022/05/09 08:35:04;;;;;;;5.10;4.82;;;19.70;71.80;;;;;;4974189;28;20259;-68
2022/05/09 08:37:33;;;;;;;5.32;5.03;;;19.70;70.40;;;;;;4974979;28;20235;-68
2022/05/09 08:40:00;;;;;;;6.63;5.75;;;19.70;75.30;;;;;;4974157;28;20206;-68
2022/05/09 08:42:36;;;;;;;4.55;4.32;;;19.80;71.20;;;;;;4966883;28;20643;-68
2022/05/09 08:45:14;;;;;;;4.38;4.18;;;19.80;73.90;;;;;;4958153;28;20666;-69
2022/05/09 08:48:14;;;;;;;4.25;4.05;;;19.80;69.30;;;;;;4962005;28;20188;-69
2022/05/09 08:50:53;;;;;;;5.32;4.90;;;19.80;70.00;;;;;;4961945;29;20291;-69
2022/05/09 08:53:24;;;;;;;5.28;4.82;;;19.80;73.20;;;;;;4962918;28;20282;-69
2022/05/09 08:55:52;;;;;;;5.30;5.00;;;19.80;67.60;;;;;;4959470;29;20242;-68
2022/05/09 08:58:31;;;;;;;4.75;4.30;;;19.80;72.80;;;;;;4963833;28;20654;-68
2022/05/09 09:01:03;;;;;;;4.95;4.65;;;19.80;66.30;;;;;;4962590;28;20188;-68
2022/05/09 09:03:34;;;;;;;4.78;4.25;;;19.70;66.60;;;;;;4960931;29;20227;-69
2022/05/09 09:06:06;;;;;;;5.95;4.63;;;19.70;64.70;;;;;;4958522;28;20251;-69
2022/05/09 09:08:49;;;;;;;4.22;4.03;;;19.70;63.30;;;;;;4955781;28;20192;-69
2022/05/09 09:11:26;;;;;;;4.25;3.95;;;19.70;67.60;;;;;;4956077;28;20183;-69
2022/05/09 09:14:01;;;;;;;4.78;4.38;;;19.90;63.70;;;;;;4955342;28;20194;-69
2022/05/09 09:16:57;;;;;;;4.00;3.80;;;19.80;62.30;;;;;;4955969;28;20202;-69
2022/05/09 09:19:39;;;;;;;4.85;4.10;;;19.80;63.00;;;;;;4955598;28;20279;-69
2022/05/09 09:22:15;;;;;;;4.13;3.92;;;19.80;63.40;;;;;;4955367;28;20263;-69
2022/05/09 09:25:01;;;;;;;4.95;4.28;;;19.90;66.40;;;;;;4955932;28;20211;-69
2022/05/09 09:27:40;;;;;;;4.82;4.43;;;20.10;67.40;;;;;;4955704;28;20283;-69
2022/05/09 09:30:11;;;;;;;4.40;4.10;;;20.10;59.70;;;;;;4955847;28;20274;-69
2022/05/09 09:32:40;;;;;;;4.35;4.07;;;19.90;59.70;;;;;;4956045;28;20227;-69
2022/05/09 09:35:12;;;;;;;4.82;4.43;;;19.90;58.50;;;;;;4958957;28;20207;-69
2022/05/09 09:37:48;;;;;;;4.55;4.18;;;19.90;60.10;;;;;;4959959;28;20200;-69
2022/05/09 09:40:17;;;;;;;4.60;4.30;;;20.00;59.20;;;;;;4958952;28;20215;-69
2022/05/09 09:42:44;;;;;;;5.18;4.68;;;20.00;58.70;;;;;;4958251;28;20572;-69
2022/05/09 09:45:20;;;;;;;5.35;4.85;;;20.00;58.40;;;;;;4958098;28;20593;-69
2022/05/09 09:47:47;;;;;;;4.25;3.85;;;19.90;60.20;;;;;;4958592;28;20274;-69
2022/05/09 09:50:20;;;;;;;4.35;4.10;;;19.80;60.00;;;;;;4958829;28;20248;-69
2022/05/09 09:52:50;;;;;;;4.38;4.07;;;19.80;61.60;;;;;;4958719;28;20539;-69
2022/05/09 09:55:25;;;;;;;4.88;4.00;;;19.90;62.50;;;;;;4958171;28;20640;-69
2022/05/09 09:57:53;;;;;;;4.20;4.00;;;20.00;58.00;;;;;;4958446;28;20202;-69
2022/05/09 10:00:22;;;;;;;3.97;3.78;;;20.00;58.00;;;;;;4958266;28;20214;-69
2022/05/09 10:02:51;;;;;;;4.25;3.97;;;20.00;57.80;;;;;;4959020;28;20318;-69
2022/05/09 10:05:19;;;;;;;4.82;4.45;;;20.10;57.20;;;;;;4964224;28;20211;-68
2022/05/09 10:07:47;;;;;;;4.20;3.90;;;20.00;55.60;;;;;;4966518;28;20266;-68
2022/05/09 10:10:17;;;;;;;3.90;3.70;;;19.90;54.80;;;;;;4961985;28;20651;-68
2022/05/09 10:12:48;;;;;;;4.03;3.72;;;19.80;57.10;;;;;;4958758;28;20331;-68
2022/05/09 10:15:29;;;;;;;4.00;3.70;;;20.00;54.50;;;;;;4959498;28;20567;-71
2022/05/09 10:17:57;;;;;;;4.10;3.90;;;20.10;54.20;;;;;;4958088;28;20190;-71
2022/05/09 10:20:28;;;;;;;4.82;4.43;;;20.10;52.70;;;;;;4958139;28;20203;-71
2022/05/09 10:25:59;;;;;;;4.50;4.15;;;20.20;54.70;;;;;;4958459;29;20187;-69
2022/05/09 10:28:31;;;;;;;4.38;4.18;;;20.30;55.70;;;;;;4958582;28;20191;-69
2022/05/09 10:31:06;;;;;;;4.18;3.92;;;20.50;54.50;;;;;;4957917;28;20287;-70
2022/05/09 10:33:38;;;;;;;5.30;4.13;;;20.50;53.50;;;;;;4958325;28;20198;-69
2022/05/09 10:36:09;;;;;;;4.70;4.38;;;20.50;52.40;;;;;;4958133;28;20211;-69
2022/05/09 10:38:41;;;;;;;4.88;4.45;;;20.30;53.40;;;;;;4958465;28;20235;-70
2022/05/09 10:41:17;;;;;;;4.50;4.20;;;20.20;53.80;;;;;;4958143;28;20195;-70
2022/05/09 10:43:50;;;;;;;5.95;4.32;;;20.10;56.10;;;;;;4957000;28;20204;-71
2022/05/09 10:46:19;;;;;;;4.60;4.40;;;20.10;56.80;;;;;;4959350;28;20188;-71
2022/05/09 10:48:57;;;;;;;4.55;4.35;;;20.00;57.00;;;;;;4962114;28;20204;-71
2022/05/09 10:51:34;;;;;;;5.07;4.65;;;19.90;57.50;;;;;;4961429;28;20298;-69
2022/05/09 10:54:08;;;;;;;4.05;3.90;;;19.90;57.80;;;;;;4961752;28;20212;-69
2022/05/09 10:56:45;;;;;;;5.05;4.68;;;20.00;59.50;;;;;;4961692;28;20639;-69
2022/05/09 10:59:20;;;;;;;4.53;4.22;;;20.10;57.10;;;;;;4957374;28;20191;-69
2022/05/09 11:01:56;;;;;;;4.50;4.30;;;20.10;55.60;;;;;;4956931;28;20230;-69
2022/05/09 11:04:24;;;;;;;4.07;3.85;;;20.10;56.00;;;;;;4956607;28;20223;-70
2022/05/09 11:06:59;;;;;;;4.47;4.28;;;20.10;54.90;;;;;;4956927;28;20610;-70
2022/05/09 11:09:45;;;;;;;4.63;4.32;;;20.10;54.90;;;;;;4956601;28;20636;-69
2022/05/09 11:12:26;;;;;;;4.28;3.97;;;20.20;55.10;;;;;;4956388;28;20635;-69
2022/05/09 11:15:05;;;;;;;4.20;4.00;;;20.30;52.90;;;;;;4957529;28;20183;-69
2022/05/09 11:18:07;;;;;;;5.28;4.95;;;20.40;52.30;;;;;;4956558;28;20188;-69
2022/05/09 11:20:41;;;;;;;5.05;4.75;;;20.60;54.10;;;;;;4957407;28;20529;-69
2022/05/09 11:23:26;;;;;;;5.20;4.80;;;20.70;53.30;;;;;;4956082;28;20310;-69
2022/05/09 11:26:06;;;;;;;4.25;4.00;;;20.70;50.00;;;;;;4956423;28;20222;-70
2022/05/09 11:28:57;;;;;;;4.82;4.55;;;20.60;50.90;;;;;;4957004;28;20275;-70
2022/05/09 11:31:33;;;;;;;4.28;4.05;;;20.60;51.60;;;;;;4957141;29;20228;-70
2022/05/09 11:34:22;;;;;;;5.00;4.60;;;20.60;50.70;;;;;;4956966;28;20190;-71
2022/05/09 11:37:05;;;;;;;5.47;4.50;;;20.50;51.00;;;;;;4956084;28;20191;-71
2022/05/09 11:39:44;;;;;;;4.95;4.60;;;20.40;51.00;;;;;;4957039;28;20187;-67
2022/05/09 11:45:15;;;;;;;4.30;4.10;;;20.10;54.10;;;;;;4960011;29;20714;-67
2022/05/09 11:47:52;;;;;;;4.82;4.45;;;20.10;53.40;;;;;;4959390;29;20210;-66
2022/05/09 11:50:29;;;;;;;4.90;4.50;;;20.10;52.30;;;;;;4960297;28;20211;-65
2022/05/09 11:52:59;;;;;;;4.15;3.95;;;20.10;53.60;;;;;;4960442;28;20231;-66
2022/05/09 11:55:27;;;;;;;4.20;4.00;;;20.20;55.20;;;;;;4959228;28;20231;-68
2022/05/09 11:57:56;;;;;;;4.07;3.80;;;20.30;56.20;;;;;;4959370;28;20206;-67
2022/05/09 12:00:50;;;;;;;4.93;4.60;;;20.40;53.80;;;;;;4958198;28;20660;-66
2022/05/09 12:03:59;;;;;;;4.50;3.92;;;20.40;49.30;;;;;;4955967;29;20590;-67
2022/05/09 12:06:31;;;;;;;4.13;3.88;;;20.30;51.10;;;;;;4956260;28;20222;-67
2022/05/09 12:09:01;;;;;;;3.80;3.60;;;20.40;51.80;;;;;;4956990;28;20306;-67
2022/05/09 12:11:42;;;;;;;4.32;4.03;;;20.60;51.60;;;;;;4955583;28;20255;-67
2022/05/09 12:14:10;;;;;;;4.70;4.30;;;20.80;49.60;;;;;;4955774;28;20279;-68
2022/05/09 12:16:51;;;;;;;4.32;4.13;;;20.70;49.60;;;;;;4955826;28;20203;-67
2022/05/09 12:19:32;;;;;;;4.10;3.90;;;20.70;49.80;;;;;;4955786;28;20244;-67
2022/05/09 12:22:34;;;;;;;4.07;3.88;;;20.60;50.70;;;;;;4955771;28;20229;-66
2022/05/09 12:25:02;;;;;;;4.10;3.80;;;20.60;51.00;;;;;;4955398;28;20222;-66
2022/05/09 12:28:02;;;;;;;4.35;3.95;;;20.50;49.40;;;;;;4955478;28;20294;-66
2022/05/09 12:30:47;;;;;;;3.58;3.42;;;20.40;50.50;;;;;;4955428;28;20592;-67
2022/05/09 12:33:21;;;;;;;4.30;4.00;;;20.40;51.90;;;;;;4955104;28;20593;-66
2022/05/09 12:35:52;;;;;;;3.60;3.40;;;20.50;54.50;;;;;;4955474;28;20189;-66
2022/05/09 12:38:23;;;;;;;3.80;3.60;;;20.80;51.30;;;;;;4956027;28;20195;-66
2022/05/09 12:40:58;;;;;;;3.90;3.70;;;21.00;52.80;;;;;;4955581;28;20266;-66
2022/05/09 12:43:25;;;;;;;4.40;4.10;;;21.20;51.70;;;;;;4955198;28;20797;-66
2022/05/09 12:45:53;;;;;;;4.15;3.90;;;21.30;47.30;;;;;;4956287;28;20306;-67
2022/05/09 12:48:20;;;;;;;3.72;3.53;;;21.10;47.60;;;;;;4956635;28;20259;-68
2022/05/09 12:50:48;;;;;;;4.43;4.05;;;21.10;46.80;;;;;;4955179;28;20208;-67
2022/05/09 12:53:18;;;;;;;3.33;3.13;;;21.20;46.40;;;;;;4955345;28;20227;-67
2022/05/09 12:55:55;;;;;;;4.07;3.88;;;21.20;48.00;;;;;;4955441;28;20203;-67
2022/05/09 12:58:24;;;;;;;4.38;4.13;;;21.30;47.90;;;;;;4957340;29;20279;-69
2022/05/09 13:00:57;;;;;;;4.40;4.00;;;21.30;44.10;;;;;;4959452;28;20258;-69
2022/05/09 13:03:24;;;;;;;4.13;3.92;;;21.10;45.00;;;;;;4956243;28;20223;-69
2022/05/09 13:05:52;;;;;;;4.18;3.95;;;21.00;45.90;;;;;;4957401;28;20231;-69
2022/05/09 13:08:25;;;;;;;4.03;3.72;;;20.90;45.70;;;;;;4959953;28;20250;-67
2022/05/09 13:10:55;;;;;;;3.85;3.53;;;20.80;46.90;;;;;;4962790;28;20223;-67
2022/05/09 13:13:30;;;;;;;5.00;4.07;;;20.70;48.60;;;;;;4963074;28;20243;-70
2022/05/09 13:15:59;;;;;;;3.90;3.70;;;20.80;48.80;;;;;;4963255;28;20608;-70
2022/05/09 13:18:28;;;;;;;3.90;3.67;;;20.90;47.90;;;;;;4962230;28;20204;-70
2022/05/09 13:20:59;;;;;;;4.50;3.70;;;21.00;47.70;;;;;;4962293;28;20290;-70
2022/05/09 13:23:31;;;;;;;3.80;3.60;;;21.10;45.60;;;;;;4961239;28;20223;-70
2022/05/09 13:26:01;;;;;;;4.38;4.03;;;21.20;45.60;;;;;;4958479;28;20218;-70
2022/05/09 13:28:31;;;;;;;3.60;3.50;;;21.20;45.00;;;;;;4958328;28;20191;-70
2022/05/09 13:30:59;;;;;;;3.90;3.60;;;21.10;44.50;;;;;;4958496;28;20255;-70
2022/05/09 13:33:29;;;;;;;4.03;3.72;;;21.10;44.00;;;;;;4958518;28;20227;-68
2022/05/09 13:35:59;;;;;;;3.75;3.55;;;21.00;43.50;;;;;;4958605;29;20574;-68
2022/05/09 13:38:31;;;;;;;3.85;3.67;;;21.00;45.10;;;;;;4959037;28;20192;-69
2022/05/09 13:41:04;;;;;;;4.30;4.10;;;20.90;46.40;;;;;;4958554;28;20188;-70
2022/05/09 13:43:34;;;;;;;4.53;4.28;;;20.80;47.80;;;;;;4959683;28;20204;-69
2022/05/09 13:46:07;;;;;;;4.25;3.80;;;20.70;47.30;;;;;;4959095;28;20284;-69
2022/05/09 13:48:35;;;;;;;4.65;4.28;;;20.70;45.40;;;;;;4958904;28;20203;-69
2022/05/09 13:51:03;;;;;;;4.03;3.60;;;20.70;46.70;;;;;;4959022;28;20270;-69
2022/05/09 13:53:36;;;;;;;3.58;3.45;;;20.70;46.40;;;;;;4958587;28;20214;-69
2022/05/09 13:56:08;;;;;;;3.80;3.60;;;20.80;46.40;;;;;;4958412;28;20180;-69
2022/05/09 13:58:35;;;;;;;3.83;3.70;;;20.80;47.50;;;;;;4958455;29;20210;-69
2022/05/09 14:01:04;;;;;;;3.70;3.50;;;20.90;48.70;;;;;;4958172;28;20210;-69
2022/05/09 14:03:36;;;;;;;4.40;4.00;;;21.10;48.00;;;;;;4959259;28;20223;-68
2022/05/09 14:06:10;;;;;;;4.20;3.40;;;21.20;46.00;;;;;;4958241;28;20212;-68
2022/05/09 14:08:39;;;;;;;3.58;3.38;;;21.20;44.80;;;;;;4958380;28;20195;-68
2022/05/09 14:11:09;;;;;;;4.00;3.80;;;21.20;44.20;;;;;;4957756;28;20290;-69
2022/05/09 14:13:45;;;;;;;4.05;3.65;;;21.30;41.80;;;;;;4957387;28;20267;-69
2022/05/09 14:16:19;;;;;;;3.50;3.30;;;21.20;41.40;;;;;;4958102;28;20191;-69
2022/05/09 14:18:51;;;;;;;2.80;2.70;;;21.20;41.60;;;;;;4957036;28;20199;-69
2022/05/09 14:21:21;;;;;;;3.33;3.15;;;21.30;42.30;;;;;;4956997;28;20632;-69
2022/05/09 14:23:56;;;;;;;3.38;2.88;;;21.40;41.50;;;;;;4957804;28;20187;-69
2022/05/09 14:31:59;;;;;;;3.58;3.40;;;21.60;40.60;;;;;;4957415;29;20281;-69
2022/05/09 14:34:38;;;;;;;2.85;2.75;;;21.70;40.40;;;;;;4957182;28;20303;-68
2022/05/09 14:37:19;;;;;;;2.95;2.85;;;21.80;40.60;;;;;;4957717;28;20198;-69
2022/05/09 14:39:49;;;;;;;3.72;3.45;;;21.80;40.40;;;;;;4957031;28;20192;-69
2022/05/09 14:42:18;;;;;;;3.13;3.03;;;21.70;39.70;;;;;;4957171;28;20234;-69
2022/05/09 14:44:54;;;;;;;3.30;3.05;;;21.70;40.00;;;;;;4957774;28;20290;-69
2022/05/09 14:47:27;;;;;;;3.17;3.03;;;21.70;39.70;;;;;;4957407;28;20202;-69
2022/05/09 14:50:06;;;;;;;3.10;3.00;;;21.70;40.50;;;;;;4957160;28;20191;-68
2022/05/09 14:52:37;;;;;;;3.35;3.17;;;21.60;40.70;;;;;;4957584;28;20223;-69
2022/05/09 14:58:02;;;;;;;3.67;3.38;;;21.60;41.50;;;;;;4957037;29;20558;-69
2022/05/09 15:00:33;;;;;;;3.83;3.60;;;21.70;41.80;;;;;;4956714;28;20560;-68
2022/05/09 15:03:02;;;;;;;3.45;3.25;;;21.60;40.70;;;;;;4956492;28;20733;-68
2022/05/09 15:05:29;;;;;;;3.33;3.00;;;21.60;40.20;;;;;;4956648;28;20666;-68
2022/05/09 15:07:57;;;;;;;3.60;3.28;;;21.50;38.90;;;;;;4956892;28;20199;-68
2022/05/09 15:10:27;;;;;;;3.67;3.40;;;21.50;38.50;;;;;;4957001;28;20273;-68
2022/05/09 15:12:54;;;;;;;2.80;2.70;;;21.40;36.60;;;;;;4956687;28;20234;-68
2022/05/09 15:15:21;;;;;;;3.13;2.78;;;21.40;36.70;;;;;;4956696;28;20206;-67
2022/05/09 15:17:48;;;;;;;2.45;2.35;;;21.50;37.00;;;;;;4957507;28;20291;-67
2022/05/09 15:20:15;;;;;;;4.65;3.28;;;21.60;37.60;;;;;;4956697;28;20187;-66
2022/05/09 15:22:42;;;;;;;2.80;2.70;;;21.70;37.90;;;;;;4956837;28;20227;-67
2022/05/09 15:25:10;;;;;;;3.10;2.90;;;21.70;37.40;;;;;;4956808;28;20286;-69
2022/05/09 15:27:39;;;;;;;3.70;3.35;;;21.80;36.50;;;;;;4956060;28;20250;-67
2022/05/09 15:30:08;;;;;;;3.38;3.13;;;21.80;38.40;;;;;;4955618;28;20250;-67
2022/05/09 15:32:35;;;;;;;3.67;3.35;;;21.80;40.10;;;;;;4956083;28;20730;-68
2022/05/09 15:35:02;;;;;;;3.40;3.20;;;21.70;40.60;;;;;;4956620;28;20200;-68
2022/05/09 15:37:31;;;;;;;3.53;3.42;;;21.60;40.70;;;;;;4956758;28;20207;-68
2022/05/09 15:39:58;;;;;;;3.78;3.58;;;21.50;42.50;;;;;;4955844;28;20250;-68
2022/05/09 15:42:28;;;;;;;8.32;3.72;;;21.40;42.60;;;;;;4956142;28;20230;-68
2022/05/09 15:45:00;;;;;;;3.20;3.10;;;21.30;42.70;;;;;;4956033;28;20254;-68
2022/05/09 15:47:28;;;;;;;3.65;3.45;;;21.30;43.30;;;;;;4956063;28;20266;-68
2022/05/09 15:49:55;;;;;;;3.38;3.17;;;21.30;40.80;;;;;;4955916;28;20283;-68
2022/05/09 15:52:22;;;;;;;3.47;3.33;;;21.20;40.50;;;;;;4955874;28;20233;-68
2022/05/09 15:54:50;;;;;;;4.18;3.88;;;21.20;40.10;;;;;;4955874;28;20207;-68
2022/05/09 15:57:23;;;;;;;3.70;3.50;;;21.10;39.00;;;;;;4955561;28;20697;-68
2022/05/09 15:59:51;;;;;;;3.00;2.80;;;21.20;39.50;;;;;;4955924;28;20603;-69
2022/05/09 16:02:28;;;;;;;3.03;2.92;;;21.20;38.30;;;;;;4956202;28;20310;-69
2022/05/09 16:04:55;;;;;;;3.00;2.83;;;21.20;37.80;;;;;;4955450;28;20504;-69
2022/05/09 16:12:53;;;;;;;3.83;3.63;;;21.30;40.00;;;;;;4954572;29;20286;-67
2022/05/09 16:15:23;;;;;;;3.88;3.67;;;21.30;40.90;;;;;;4955798;28;20694;-68
2022/05/09 16:17:56;;;;;;;3.38;3.28;;;21.20;40.80;;;;;;4955762;28;20286;-68
2022/05/09 16:20:23;;;;;;;3.63;3.42;;;21.10;42.30;;;;;;4955763;28;20294;-68
2022/05/09 16:22:50;;;;;;;3.17;2.97;;;21.10;41.50;;;;;;4956094;28;20223;-68
2022/05/09 16:25:17;;;;;;;3.33;3.22;;;21.10;41.70;;;;;;4955772;28;20365;-69
2022/05/09 16:27:47;;;;;;;3.85;3.55;;;21.10;42.10;;;;;;4955687;28;20578;-69
2022/05/09 16:30:18;;;;;;;3.70;3.50;;;21.00;42.40;;;;;;4955625;28;20188;-69
2022/05/09 16:32:46;;;;;;;3.95;3.75;;;20.90;43.40;;;;;;4955408;28;20234;-69
2022/05/09 16:35:16;;;;;;;3.80;3.58;;;20.90;43.00;;;;;;4955243;28;20218;-69
2022/05/09 16:37:44;;;;;;;3.53;3.40;;;20.80;42.90;;;;;;4955892;28;20231;-68
2022/05/09 16:40:12;;;;;;;3.45;3.13;;;20.80;42.90;;;;;;4955470;28;20608;-68
2022/05/09 16:42:41;;;;;;;3.50;3.40;;;20.70;42.80;;;;;;4954255;28;20219;-68
2022/05/09 16:45:11;;;;;;;3.17;3.08;;;20.60;42.80;;;;;;4955404;28;20787;-69
2022/05/09 16:47:40;;;;;;;3.50;3.30;;;20.50;43.50;;;;;;4955139;28;20619;-69
2022/05/09 16:50:09;;;;;;;3.47;3.28;;;20.50;44.30;;;;;;4954901;28;20671;-68
2022/05/09 16:52:37;;;;;;;3.60;3.40;;;20.50;45.20;;;;;;4955608;28;20227;-69
2022/05/09 16:55:06;;;;;;;3.65;3.45;;;20.40;45.70;;;;;;4955141;28;20227;-73
2022/05/09 16:57:33;;;;;;;3.42;3.22;;;20.40;46.50;;;;;;4955314;28;20206;-69
2022/05/09 17:00:00;;;;;;;3.30;3.17;;;20.40;46.80;;;;;;4955340;28;20266;-69
2022/05/09 17:02:29;;;;;;;3.33;3.13;;;20.40;48.10;;;;;;4954864;28;20314;-69
2022/05/09 17:04:56;;;;;;;3.35;3.15;;;20.40;48.80;;;;;;4955472;28;20218;-69
2022/05/09 17:07:24;;;;;;;3.42;3.22;;;20.40;49.70;;;;;;4955214;28;20227;-70
2022/05/09 17:09:53;;;;;;;3.58;3.47;;;20.40;48.60;;;;;;4955183;28;20288;-70
2022/05/09 17:12:23;;;;;;;4.05;3.65;;;20.30;47.80;;;;;;4955235;28;20317;-69
2022/05/09 17:14:51;;;;;;;4.55;3.92;;;20.30;47.40;;;;;;4954996;28;20230;-69
2022/05/09 17:17:18;;;;;;;4.40;4.13;;;20.30;46.90;;;;;;4955086;28;20207;-69
2022/05/09 17:19:45;;;;;;;3.83;3.50;;;20.30;46.40;;;;;;4955488;28;20206;-70
2022/05/09 17:22:12;;;;;;;3.45;3.25;;;20.30;46.20;;;;;;4954815;28;20311;-69
2022/05/09 17:24:38;;;;;;;3.85;3.65;;;20.30;46.40;;;;;;4954954;28;20294;-69
2022/05/09 17:27:11;;;;;;;2.95;2.85;;;20.20;46.10;;;;;;4955700;28;20259;-69
2022/05/09 17:29:38;;;;;;;3.92;3.72;;;20.20;47.30;;;;;;4954837;28;20727;-69
2022/05/09 17:32:06;;;;;;;4.28;3.85;;;20.20;47.90;;;;;;4954990;28;20249;-71